LPMA

Details ICAO LPMA (FNC)
Name Madeira/Funchal - Cristiano Ronaldo
Region Portugal
Timezone Atlantic/Madeira (UTC+0.0)
Plans Departing 4497
Arriving 7193
Stats Elevation 189 ft / 58 m (AMSL)
Location 32.697900° -16.774400°
Runways 1
Magnetic Variation 4.372° W
Sunrise 2022-12-03 07:54:19 UTC / 2022-12-03 07:54:19 Local
Sunset 2022-12-03 18:02:21 UTC / 2022-12-03 18:02:21 Local
Advertisement - Login to hide

Runways

ID Width Length Bearing (true/mag) Surface Threshold Overrun Markings Lighting
05 148 ft / 45 m 9,133 ft / 2,784 m 44.60° / 48.97° ASPHALT 482 ft / 147 m 0 ft / 0 m PREC-APP CENTERLINE EDGE THRESHOLD TDZ REIL-OMNI
23 148 ft / 45 m 9,133 ft / 2,784 m 224.61° / 228.98° ASPHALT 482 ft / 147 m 0 ft / 0 m PREC-APP CENTERLINE EDGE THRESHOLD TDZ REIL-OMNI

Map

Weather


0- 5 10 15 20 25 30 35+ Temperature / °C

Clouds and Precipitation
Forecast for 2022-12-03 12:00 UTC. Updated 3 hours ago

Ground ~20,000 ft ~40,000 ft Winds

METAR

LPMA 031230Z 14005KT 070V240 9999 BKN016 17/10 Q1009

TAF

TAF LPMA 031100Z 0312/0412 VRB05KT 9999 SCT015 SCT030 BECMG 0312/0315 24010KT PROB30 TEMPO 0315/0322 8000 SHRA BKN014 FEW018TCU BECMG 0322/0401 23015KT SCT012 BKN030 TEMPO 0401/0412 5000 SHRA SCT006 BKN012 FEW018CB PROB30 TEMPO 0401/0412 22020G32KT 3000 +TSRA SCT015CB

Frequencies

Recorded 124.40 MHz ATIS
Approach 119.60 MHz
Tower 118.35 MHz
Approach 119.20 MHz
Warning: Do not use this data for real-world aviation or navigation. No guarantee of current accuracy is given.